createdAt,value
2023-05-05T00:00:14.092Z,12.24
2023-05-05T00:02:44.883Z,12.19
2023-05-05T00:05:15.419Z,12.34
2023-05-05T00:07:45.957Z,12.18
2023-05-05T00:10:16.481Z,12.18
2023-05-05T00:12:48.925Z,12.24
2023-05-05T00:15:19.897Z,12.37
2023-05-05T00:17:50.320Z,12.54
2023-05-05T00:20:20.890Z,12.93
2023-05-05T00:22:51.487Z,12.97
2023-05-05T00:25:21.872Z,12.65
2023-05-05T00:27:53.969Z,12.55
2023-05-05T00:30:25.080Z,12.51
2023-05-05T00:32:56.284Z,12.49
2023-05-05T00:35:27.766Z,12.78
2023-05-05T00:37:58.599Z,13.23
2023-05-05T00:40:29.188Z,13.12
2023-05-05T00:43:01.893Z,13.09
2023-05-05T00:45:32.935Z,13.12
2023-05-05T00:48:04.092Z,13.16
2023-05-05T00:50:34.755Z,13.39
2023-05-05T00:53:06.225Z,13.31
2023-05-05T00:55:37.411Z,13.23
2023-05-05T00:58:09.401Z,13.47
2023-05-05T01:00:39.906Z,13.48
2023-05-05T01:03:10.666Z,13.31
2023-05-05T01:05:58.554Z,13.18
2023-05-05T01:08:41.724Z,13.31
2023-05-05T01:26:03.411Z,13.42
2023-05-05T01:28:56.053Z,13.47
2023-05-05T01:31:45.382Z,13.33
2023-05-05T01:34:19.410Z,13.23
2023-05-05T01:36:58.058Z,12.55
2023-05-05T01:39:34.172Z,13.30
2023-05-05T01:42:08.805Z,13.32
2023-05-05T01:44:40.511Z,13.01
2023-05-05T01:47:13.913Z,13.42
2023-05-05T01:49:47.449Z,13.53
2023-05-05T01:52:19.138Z,13.72
2023-05-05T01:54:50.709Z,13.92
2023-05-05T01:57:22.822Z,13.89
2023-05-05T01:59:55.697Z,14.00
2023-05-05T02:02:31.041Z,14.06
2023-05-05T02:05:02.860Z,14.06
2023-05-05T02:07:35.992Z,13.80
2023-05-05T02:10:07.616Z,13.85
2023-05-05T02:12:40.378Z,13.86
2023-05-05T02:15:12.987Z,13.62
2023-05-05T02:17:47.292Z,13.56
2023-05-05T02:20:18.986Z,13.45
2023-05-05T02:22:49.612Z,13.50
2023-05-05T02:25:20.562Z,13.21
2023-05-05T02:27:53.561Z,13.27
2023-05-05T02:30:25.169Z,13.27
2023-05-05T02:33:02.824Z,13.36
2023-05-05T02:35:38.325Z,13.59
2023-05-05T02:38:12.416Z,13.63
2023-05-05T02:40:46.631Z,13.53
2023-05-05T02:43:21.073Z,13.49
2023-05-05T02:45:51.726Z,13.51
2023-05-05T02:48:24.044Z,12.98
2023-05-05T02:50:54.564Z,13.21
2023-05-05T02:53:29.297Z,13.16
2023-05-05T02:56:08.623Z,13.24
2023-05-05T02:58:45.315Z,13.48
2023-05-05T03:01:29.369Z,13.58
2023-05-05T03:04:09.185Z,13.48
2023-05-05T03:06:43.642Z,13.49
2023-05-05T03:09:18.694Z,13.64
2023-05-05T03:11:52.768Z,13.61
2023-05-05T03:14:24.440Z,13.57
2023-05-05T03:16:57.958Z,13.76
2023-05-05T03:19:31.272Z,13.56
2023-05-05T03:22:02.364Z,13.70
2023-05-05T03:24:34.351Z,13.66
2023-05-05T03:27:06.059Z,13.16
2023-05-05T03:29:36.515Z,13.73
2023-05-05T03:32:07.391Z,13.23
2023-05-05T03:34:39.473Z,13.63
2023-05-05T03:37:09.943Z,13.49
2023-05-05T03:39:40.381Z,13.44
2023-05-05T03:42:11.013Z,13.48
2023-05-05T03:44:41.519Z,13.24
2023-05-05T03:47:12.036Z,13.15
2023-05-05T03:49:44.072Z,13.23
2023-05-05T03:52:15.147Z,13.23
2023-05-05T03:54:46.879Z,13.19
2023-05-05T03:57:17.553Z,13.27
2023-05-05T03:59:47.996Z,13.26
2023-05-05T04:02:19.190Z,13.34
2023-05-05T04:04:51.290Z,13.28
2023-05-05T04:07:23.575Z,13.57
2023-05-05T04:09:54.143Z,13.59
2023-05-05T04:12:24.674Z,13.79
2023-05-05T04:14:55.093Z,13.67
2023-05-05T04:17:25.784Z,13.05
2023-05-05T04:19:57.942Z,13.03
2023-05-05T04:22:28.552Z,12.93
2023-05-05T04:24:59.082Z,12.99
2023-05-05T04:27:30.768Z,13.06
2023-05-05T04:30:01.482Z,13.09
2023-05-05T04:32:32.096Z,13.23
2023-05-05T04:35:04.557Z,13.03
2023-05-05T04:37:35.059Z,13.08
2023-05-05T04:40:05.617Z,13.12
2023-05-05T04:42:36.199Z,13.07
2023-05-05T04:45:07.679Z,12.94
2023-05-05T04:47:40.847Z,12.51
2023-05-05T04:50:16.512Z,12.75
2023-05-05T04:52:47.040Z,12.93
2023-05-05T04:55:17.610Z,13.04
2023-05-05T04:57:48.164Z,13.06
2023-05-05T05:00:19.330Z,12.45
2023-05-05T05:02:49.936Z,12.89
2023-05-05T05:05:22.421Z,12.71
2023-05-05T05:07:53.047Z,12.34
2023-05-05T05:10:23.673Z,12.37
2023-05-05T05:12:54.305Z,12.45
2023-05-05T05:15:25.229Z,12.39
2023-05-05T05:17:55.818Z,12.05
2023-05-05T05:20:28.144Z,11.83
2023-05-05T05:22:59.152Z,11.65
2023-05-05T05:25:30.105Z,11.52
2023-05-05T05:28:08.960Z,11.45
2023-05-05T05:30:40.918Z,11.68
2023-05-05T05:33:11.496Z,11.64
2023-05-05T05:35:43.657Z,11.66
2023-05-05T05:38:14.120Z,11.76
2023-05-05T05:40:44.842Z,11.65
2023-05-05T05:43:15.370Z,11.65
2023-05-05T05:45:45.918Z,11.70
2023-05-05T05:48:16.622Z,11.69
2023-05-05T05:50:48.825Z,11.73
2023-05-05T05:53:19.475Z,11.80
2023-05-05T05:55:49.960Z,11.64
2023-05-05T05:58:20.466Z,11.68
2023-05-05T06:00:51.987Z,11.07
2023-05-05T06:03:22.703Z,11.76
2023-05-05T06:05:54.888Z,11.86
2023-05-05T06:08:25.325Z,11.85
2023-05-05T06:10:56.437Z,11.91
2023-05-05T06:13:27.474Z,11.86
2023-05-05T06:15:58.103Z,11.99
2023-05-05T06:18:28.753Z,12.00
2023-05-05T06:21:01.222Z,12.02
2023-05-05T06:23:31.807Z,12.13
2023-05-05T06:26:02.315Z,12.18
2023-05-05T06:28:32.963Z,12.35
2023-05-05T06:31:03.656Z,12.36
2023-05-05T06:33:34.379Z,12.19
2023-05-05T06:36:09.790Z,12.31
2023-05-05T06:38:40.372Z,12.30
2023-05-05T06:41:10.937Z,12.32
2023-05-05T06:43:44.585Z,12.20
2023-05-05T06:46:15.110Z,12.21
2023-05-05T06:48:45.604Z,12.23
2023-05-05T06:51:17.882Z,12.33
2023-05-05T06:53:48.420Z,12.13
2023-05-05T06:56:18.887Z,12.09
2023-05-05T06:58:49.530Z,11.98
2023-05-05T07:01:20.264Z,11.91
2023-05-05T07:03:50.911Z,11.84
2023-05-05T07:06:23.140Z,11.73
2023-05-05T07:08:53.571Z,11.60
2023-05-05T07:11:24.108Z,11.54
2023-05-05T07:13:59.319Z,11.43
2023-05-05T07:16:30.337Z,11.40
2023-05-05T07:19:01.632Z,11.33
2023-05-05T07:21:33.985Z,11.27
2023-05-05T07:24:04.911Z,11.19
2023-05-05T07:26:35.464Z,11.15
2023-05-05T07:29:08.014Z,10.86
2023-05-05T07:31:38.462Z,10.92
2023-05-05T07:34:08.930Z,10.76
2023-05-05T07:36:40.937Z,10.62
2023-05-05T07:39:11.337Z,10.60
2023-05-05T07:41:41.882Z,10.54
2023-05-05T07:44:12.332Z,10.40
2023-05-05T07:46:42.721Z,10.49
2023-05-05T07:49:13.239Z,10.26
2023-05-05T07:51:45.736Z,10.16
2023-05-05T07:54:16.193Z,9.99
2023-05-05T07:56:46.546Z,9.84
2023-05-05T07:59:17.036Z,9.77
2023-05-05T08:01:47.392Z,9.78
2023-05-05T08:04:17.833Z,9.63
2023-05-05T08:06:52.757Z,9.35
2023-05-05T08:09:23.189Z,9.15
2023-05-05T08:11:53.519Z,9.05
2023-05-05T08:14:24.078Z,8.90
2023-05-05T08:16:54.460Z,8.81
2023-05-05T08:19:29.276Z,8.68
2023-05-05T08:22:01.968Z,8.50
2023-05-05T08:24:32.597Z,8.34
2023-05-05T08:27:03.057Z,8.11
2023-05-05T08:29:33.498Z,7.95
2023-05-05T08:32:04.180Z,7.89
2023-05-05T08:34:34.625Z,7.93
2023-05-05T08:37:06.650Z,7.89
2023-05-05T08:39:37.140Z,7.77
2023-05-05T08:42:07.730Z,7.71
2023-05-05T08:44:38.202Z,7.54
2023-05-05T08:47:08.859Z,7.39
2023-05-05T08:49:45.481Z,7.35
2023-05-05T08:52:20.845Z,7.33
2023-05-05T08:54:56.008Z,7.30
2023-05-05T08:57:35.100Z,7.25
2023-05-05T09:00:27.715Z,7.28
2023-05-05T09:03:02.039Z,7.00
2023-05-05T09:05:33.629Z,7.07
2023-05-05T09:08:07.627Z,7.02
2023-05-05T09:10:39.418Z,6.87
2023-05-05T09:13:30.368Z,6.75
2023-05-05T09:16:01.073Z,6.65
2023-05-05T09:18:33.014Z,6.53
2023-05-05T09:21:09.323Z,6.41
2023-05-05T09:23:41.331Z,6.38
2023-05-05T09:26:11.823Z,6.29
2023-05-05T09:28:53.934Z,6.16
2023-05-05T09:31:27.031Z,6.03
2023-05-05T09:34:04.636Z,5.94
2023-05-05T09:36:45.657Z,5.78
2023-05-05T09:39:19.618Z,5.71
2023-05-05T09:41:52.309Z,5.71
2023-05-05T09:44:36.336Z,5.67
2023-05-05T09:47:15.071Z,5.67
2023-05-05T09:50:00.973Z,5.67
2023-05-05T09:52:32.858Z,5.69
2023-05-05T09:55:04.937Z,5.66
2023-05-05T09:57:36.697Z,5.45
2023-05-05T10:00:08.234Z,5.67
2023-05-05T10:02:40.853Z,5.50
2023-05-05T10:05:13.484Z,5.54
2023-05-05T10:07:45.153Z,5.39
2023-05-05T10:10:20.927Z,5.51
2023-05-05T10:12:54.174Z,5.46
2023-05-05T10:15:25.397Z,5.47
2023-05-05T10:18:06.737Z,5.43
2023-05-05T10:20:39.373Z,5.55
2023-05-05T10:23:12.995Z,5.74
2023-05-05T10:25:52.200Z,5.70
2023-05-05T10:28:31.542Z,5.66
2023-05-05T10:31:12.843Z,5.68
2023-05-05T10:34:02.823Z,5.49
2023-05-05T10:36:34.275Z,5.52
2023-05-05T10:39:08.749Z,5.54
2023-05-05T10:41:42.806Z,5.37
2023-05-05T10:44:14.880Z,5.54
2023-05-05T10:46:46.516Z,5.55
2023-05-05T10:49:27.892Z,5.55
2023-05-05T10:52:05.783Z,5.55
2023-05-05T10:54:42.426Z,5.56
2023-05-05T10:57:18.376Z,5.52
2023-05-05T10:59:48.908Z,5.43
2023-05-05T11:02:27.557Z,5.32
2023-05-05T11:05:18.664Z,5.38
2023-05-05T11:07:50.228Z,5.24
2023-05-05T11:10:23.910Z,5.42
2023-05-05T11:13:23.681Z,5.53
2023-05-05T11:15:54.985Z,5.46
2023-05-05T11:18:36.784Z,5.22
2023-05-05T11:21:22.521Z,5.50
2023-05-05T11:23:56.663Z,5.36
2023-05-05T11:26:54.727Z,5.57
2023-05-05T11:29:26.857Z,5.57
2023-05-05T11:32:16.488Z,5.51
2023-05-05T11:34:55.920Z,5.44
2023-05-05T11:37:30.694Z,5.46
2023-05-05T11:40:14.698Z,5.54
2023-05-05T11:42:45.208Z,5.50
2023-05-05T11:45:27.600Z,5.53
2023-05-05T11:48:29.071Z,5.57
2023-05-05T11:50:59.573Z,5.62
2023-05-05T11:53:33.969Z,5.58
2023-05-05T11:56:19.610Z,5.56
2023-05-05T11:59:07.320Z,5.56
2023-05-05T12:01:43.328Z,5.32
2023-05-05T12:04:15.702Z,5.26
2023-05-05T12:06:48.001Z,5.36
2023-05-05T12:09:21.534Z,5.38
2023-05-05T12:11:53.145Z,5.49
2023-05-05T12:14:25.043Z,5.10
2023-05-05T12:17:02.179Z,5.54
2023-05-05T12:19:34.225Z,5.55
2023-05-05T12:22:05.155Z,5.29
2023-05-05T12:24:35.782Z,5.55
2023-05-05T12:27:12.062Z,5.55
2023-05-05T12:29:43.405Z,5.54
2023-05-05T12:32:24.988Z,5.63
2023-05-05T12:34:58.116Z,5.65
2023-05-05T12:37:30.401Z,5.62
2023-05-05T12:40:01.394Z,5.59
2023-05-05T12:42:33.188Z,5.55
2023-05-05T12:45:03.780Z,5.52
2023-05-05T12:47:37.804Z,5.45
2023-05-05T12:50:09.110Z,5.56
2023-05-05T12:52:47.025Z,5.59
2023-05-05T12:55:17.533Z,5.33
2023-05-05T12:58:05.308Z,5.39
2023-05-05T13:00:36.157Z,5.40
2023-05-05T13:03:08.538Z,5.54
2023-05-05T13:05:40.352Z,5.55
2023-05-05T13:08:10.976Z,5.25
2023-05-05T13:10:44.113Z,5.54
2023-05-05T13:13:15.857Z,5.17
2023-05-05T13:15:46.529Z,5.44
2023-05-05T13:18:18.969Z,5.46
2023-05-05T13:20:49.635Z,5.43
2023-05-05T13:23:23.012Z,5.39
2023-05-05T13:25:54.658Z,5.31
2023-05-05T13:28:25.608Z,5.12
2023-05-05T13:31:00.339Z,5.19
2023-05-05T13:33:33.222Z,5.15
2023-05-05T13:36:04.127Z,5.26
2023-05-05T13:38:34.877Z,5.25
2023-05-05T13:41:05.664Z,5.25
2023-05-05T13:43:37.247Z,5.18
2023-05-05T13:46:19.237Z,5.09
2023-05-05T13:48:56.003Z,5.05
2023-05-05T13:51:27.113Z,5.00
2023-05-05T13:53:57.818Z,4.92
2023-05-05T13:56:28.654Z,4.87
2023-05-05T13:58:59.234Z,4.83
2023-05-05T14:01:30.013Z,4.78
2023-05-05T14:04:08.260Z,4.75
2023-05-05T14:06:39.866Z,4.75
2023-05-05T14:09:12.062Z,4.77
2023-05-05T14:11:42.678Z,4.79
2023-05-05T14:14:13.947Z,4.75
2023-05-05T14:16:50.258Z,4.78
2023-05-05T14:19:23.102Z,4.76
2023-05-05T14:21:54.036Z,4.80
2023-05-05T14:24:27.548Z,4.91
2023-05-05T14:27:01.452Z,4.78
2023-05-05T14:29:33.038Z,4.62
2023-05-05T14:32:04.420Z,4.49
2023-05-05T14:34:39.582Z,4.45
2023-05-05T14:37:10.550Z,4.41
2023-05-05T14:39:41.165Z,4.28
2023-05-05T14:42:11.820Z,4.17
2023-05-05T14:44:42.366Z,4.08
2023-05-05T14:47:14.587Z,3.96
2023-05-05T14:49:47.009Z,3.89
2023-05-05T14:52:17.907Z,3.84
2023-05-05T14:54:48.708Z,3.80
2023-05-05T14:57:19.380Z,3.76
2023-05-05T14:59:52.778Z,3.64
2023-05-05T15:02:23.444Z,3.62
2023-05-05T15:04:55.684Z,3.63
2023-05-05T15:07:29.224Z,3.59
2023-05-05T15:09:59.745Z,3.62
2023-05-05T15:12:31.560Z,3.64
2023-05-05T15:15:05.190Z,3.68
2023-05-05T15:17:36.148Z,3.65
2023-05-05T15:20:10.371Z,3.58
2023-05-05T15:22:43.568Z,3.67
2023-05-05T15:25:15.843Z,3.58
2023-05-05T15:27:47.930Z,3.53
2023-05-05T15:30:18.930Z,3.34
2023-05-05T15:32:49.709Z,3.27
2023-05-05T15:35:22.483Z,3.10
2023-05-05T15:37:53.076Z,2.85
2023-05-05T15:40:23.834Z,2.72
2023-05-05T15:42:55.222Z,2.77
2023-05-05T15:45:29.325Z,2.87
2023-05-05T15:47:59.832Z,2.91
2023-05-05T15:50:32.040Z,3.02
2023-05-05T15:53:02.932Z,3.15
2023-05-05T15:55:34.085Z,3.21
2023-05-05T15:58:04.865Z,2.80
2023-05-05T16:00:35.729Z,3.12
2023-05-05T16:03:07.479Z,3.32
2023-05-05T16:05:40.093Z,2.99
2023-05-05T16:08:11.836Z,3.44
2023-05-05T16:10:42.679Z,3.50
2023-05-05T16:13:14.214Z,3.61
2023-05-05T16:15:45.550Z,3.62
2023-05-05T16:18:16.149Z,3.65
2023-05-05T16:20:48.862Z,3.74
2023-05-05T16:23:19.653Z,3.35
2023-05-05T16:25:50.299Z,3.79
2023-05-05T16:28:20.973Z,3.83
2023-05-05T16:30:51.641Z,3.83
2023-05-05T16:33:22.289Z,3.80
2023-05-05T16:35:54.549Z,3.74
2023-05-05T16:38:25.301Z,3.65
2023-05-05T16:40:56.221Z,3.45
2023-05-05T16:43:27.224Z,3.41
2023-05-05T16:45:57.873Z,3.32
2023-05-05T16:48:28.682Z,3.14
2023-05-05T16:51:02.173Z,3.06
2023-05-05T16:53:35.707Z,3.07
2023-05-05T16:56:06.502Z,2.91
2023-05-05T16:58:37.165Z,2.86
2023-05-05T17:01:07.777Z,2.90
2023-05-05T17:03:39.049Z,2.92
2023-05-05T17:06:14.143Z,2.86
2023-05-05T17:08:45.133Z,2.71
2023-05-05T17:11:16.212Z,2.64
2023-05-05T17:13:46.838Z,2.50
2023-05-05T17:16:17.717Z,2.41
2023-05-05T17:18:48.376Z,2.23
2023-05-05T17:21:21.716Z,2.28
2023-05-05T17:23:52.582Z,2.26
2023-05-05T17:26:26.173Z,2.18
2023-05-05T17:28:56.831Z,2.07
2023-05-05T17:31:28.951Z,2.06
2023-05-05T17:33:59.494Z,2.10
2023-05-05T17:36:32.131Z,2.16
2023-05-05T17:39:02.829Z,2.38
2023-05-05T17:41:33.402Z,2.55
2023-05-05T17:44:03.992Z,2.66
2023-05-05T17:46:35.085Z,2.81
2023-05-05T17:49:05.717Z,2.84
2023-05-05T17:51:38.042Z,2.78
2023-05-05T17:54:08.929Z,2.66
2023-05-05T17:56:41.244Z,2.56
2023-05-05T17:59:11.805Z,2.50
2023-05-05T18:01:42.426Z,2.57
2023-05-05T18:04:13.054Z,2.65
2023-05-05T18:06:45.241Z,2.72
2023-05-05T18:09:17.485Z,2.56
2023-05-05T18:11:48.785Z,2.39
2023-05-05T18:14:20.342Z,2.37
2023-05-05T18:16:53.338Z,2.39
2023-05-05T18:19:25.032Z,2.38
2023-05-05T18:21:58.282Z,2.30
2023-05-05T18:24:28.987Z,2.16
2023-05-05T18:26:59.531Z,2.45
2023-05-05T18:29:32.736Z,2.43
2023-05-05T18:32:03.384Z,2.47
2023-05-05T18:34:33.977Z,2.45
2023-05-05T18:37:07.051Z,2.49
2023-05-05T18:39:37.714Z,2.57
2023-05-05T18:42:08.838Z,2.69
2023-05-05T18:44:39.384Z,2.68
2023-05-05T18:47:10.024Z,2.50
2023-05-05T18:49:40.636Z,2.31
2023-05-05T18:52:12.804Z,2.35
2023-05-05T18:54:43.399Z,2.35
2023-05-05T18:57:13.983Z,2.26
2023-05-05T18:59:44.591Z,2.28
2023-05-05T19:02:14.980Z,2.29
2023-05-05T19:04:45.429Z,2.28
2023-05-05T19:07:27.901Z,2.26
2023-05-05T19:10:04.673Z,2.22
2023-05-05T19:12:35.246Z,2.15
2023-05-05T19:15:05.654Z,1.93
2023-05-05T19:17:36.310Z,1.90
2023-05-05T19:20:07.229Z,1.85
2023-05-05T19:22:39.336Z,1.75
2023-05-05T19:25:10.476Z,1.61
2023-05-05T19:27:41.169Z,1.55
2023-05-05T19:30:12.795Z,1.16
2023-05-05T19:32:43.346Z,1.56
2023-05-05T19:35:13.839Z,1.51
2023-05-05T19:37:45.885Z,1.40
2023-05-05T19:40:16.610Z,1.45
2023-05-05T19:42:47.074Z,1.43
2023-05-05T19:45:17.640Z,1.40
2023-05-05T19:47:48.346Z,1.40
2023-05-05T19:50:18.790Z,1.41
2023-05-05T19:52:50.855Z,1.56
2023-05-05T19:55:22.564Z,1.58
2023-05-05T19:57:52.884Z,1.73
2023-05-05T20:00:23.567Z,1.87
2023-05-05T20:02:54.014Z,2.00
2023-05-05T20:05:24.639Z,2.09
2023-05-05T20:07:56.635Z,1.75
2023-05-05T20:10:27.584Z,2.12
2023-05-05T20:12:58.158Z,2.36
2023-05-05T20:15:28.887Z,2.59
2023-05-05T20:17:59.663Z,2.81
2023-05-05T20:20:30.082Z,3.06
2023-05-05T20:23:02.230Z,3.22
2023-05-05T20:25:33.854Z,3.30
2023-05-05T20:28:04.183Z,3.37
2023-05-05T20:30:34.576Z,3.16
2023-05-05T20:33:05.313Z,3.11
2023-05-05T20:35:36.070Z,3.12
2023-05-05T20:38:08.220Z,3.17
2023-05-05T20:40:39.007Z,3.28
2023-05-05T20:43:09.569Z,3.27
2023-05-05T20:45:40.124Z,3.33
2023-05-05T20:48:13.602Z,3.37
2023-05-05T20:50:44.521Z,3.44
2023-05-05T20:53:16.963Z,3.57
2023-05-05T20:55:47.970Z,3.65
2023-05-05T20:58:18.485Z,3.76
2023-05-05T21:00:49.138Z,3.82
2023-05-05T21:03:19.734Z,3.95
2023-05-05T21:05:50.737Z,4.05
2023-05-05T21:08:22.827Z,4.16
2023-05-05T21:10:53.328Z,4.27
2023-05-05T21:13:23.939Z,4.13
2023-05-05T21:15:54.453Z,4.46
2023-05-05T21:18:26.525Z,4.68
2023-05-05T21:20:57.037Z,4.51
2023-05-05T21:23:29.228Z,4.04
2023-05-05T21:25:59.692Z,4.62
2023-05-05T21:28:30.059Z,4.75
2023-05-05T21:31:20.665Z,4.30
2023-05-05T21:33:51.312Z,4.40
2023-05-05T21:36:22.110Z,4.52
2023-05-05T21:38:57.763Z,4.68
2023-05-05T21:41:29.605Z,4.62
2023-05-05T21:44:00.598Z,4.77
2023-05-05T21:46:31.236Z,4.75
2023-05-05T21:49:01.768Z,5.01
2023-05-05T21:51:32.300Z,4.95
2023-05-05T21:54:07.461Z,4.87
2023-05-05T21:56:38.797Z,4.93
2023-05-05T21:59:09.530Z,5.04
2023-05-05T22:01:40.292Z,5.39
2023-05-05T22:04:11.294Z,5.54
2023-05-05T22:06:41.857Z,5.65
2023-05-05T22:09:13.983Z,5.78
2023-05-05T22:11:44.524Z,5.95
2023-05-05T22:14:15.116Z,6.04
2023-05-05T22:16:46.121Z,6.32
2023-05-05T22:19:16.878Z,6.39
2023-05-05T22:21:47.338Z,6.58
2023-05-05T22:24:19.407Z,7.17
2023-05-05T22:26:49.951Z,7.24
2023-05-05T22:29:23.128Z,7.23
2023-05-05T22:31:53.822Z,7.04
2023-05-05T22:34:24.733Z,6.94
2023-05-05T22:36:55.260Z,6.92
2023-05-05T22:39:27.872Z,6.97
2023-05-05T22:41:58.362Z,7.14
2023-05-05T22:44:28.953Z,7.18
2023-05-05T22:46:59.656Z,7.13
2023-05-05T22:49:30.583Z,6.84
2023-05-05T22:52:01.215Z,7.00
2023-05-05T22:54:33.678Z,7.34
2023-05-05T22:57:04.538Z,7.93
2023-05-05T22:59:35.108Z,8.08
2023-05-05T23:02:05.713Z,7.95
2023-05-05T23:04:36.256Z,7.82
2023-05-05T23:07:06.816Z,7.81
2023-05-05T23:09:38.847Z,8.33
2023-05-05T23:12:09.673Z,8.67
2023-05-05T23:14:40.126Z,8.96
2023-05-05T23:17:10.743Z,9.36
2023-05-05T23:19:41.183Z,8.89
2023-05-05T23:22:11.597Z,8.47
2023-05-05T23:24:43.768Z,8.49
2023-05-05T23:27:15.239Z,8.82
2023-05-05T23:29:46.202Z,9.27
2023-05-05T23:32:17.995Z,9.61
2023-05-05T23:34:48.930Z,9.96
2023-05-05T23:37:19.474Z,10.26
2023-05-05T23:39:51.618Z,10.48
2023-05-05T23:42:22.254Z,10.72
2023-05-05T23:44:53.476Z,10.61
2023-05-05T23:47:24.081Z,10.10
2023-05-05T23:49:54.544Z,10.26
2023-05-05T23:52:26.280Z,10.49
2023-05-05T23:54:58.613Z,10.66
2023-05-05T23:57:29.795Z,10.65
